createdAt,value
2023-03-06T00:01:09.138Z,100002.03
2023-03-06T00:03:37.866Z,99995.13
2023-03-06T00:06:05.267Z,99995.19
2023-03-06T00:08:32.774Z,99990.78
2023-03-06T00:11:00.952Z,99987.25
2023-03-06T00:13:30.742Z,99988.19
2023-03-06T00:16:01.269Z,99977.78
2023-03-06T00:18:28.678Z,99978.53
2023-03-06T00:20:55.739Z,99978.59
2023-03-06T00:23:24.365Z,99984.75
2023-03-06T00:25:51.713Z,99984.75
2023-03-06T00:28:19.199Z,99977.88
2023-03-06T00:30:47.568Z,99979.56
2023-03-06T00:33:15.175Z,99978.75
2023-03-06T00:35:42.707Z,99983.97
2023-03-06T00:38:12.479Z,99972.63
2023-03-06T00:40:40.386Z,99968.31
2023-03-06T00:43:08.790Z,99964.84
2023-03-06T00:45:37.306Z,99966.63
2023-03-06T00:48:05.155Z,99967.47
2023-03-06T00:50:32.220Z,99963.13
2023-03-06T00:52:59.616Z,99962.19
2023-03-06T00:55:26.645Z,99974.38
2023-03-06T00:57:54.000Z,99964.84
2023-03-06T01:00:21.214Z,99958.81
2023-03-06T01:02:48.583Z,99965.00
2023-03-06T01:05:15.716Z,99956.25
2023-03-06T01:07:43.044Z,99965.78
2023-03-06T01:10:11.056Z,99971.03
2023-03-06T01:12:38.527Z,99972.81
2023-03-06T01:15:07.721Z,99957.97
2023-03-06T01:17:34.979Z,99970.19
2023-03-06T01:20:02.394Z,99965.00
2023-03-06T01:22:30.139Z,99965.88
2023-03-06T01:24:57.088Z,99957.19
2023-03-06T01:27:24.429Z,99963.28
2023-03-06T01:29:51.417Z,99958.94
2023-03-06T01:32:18.787Z,99958.88
2023-03-06T01:34:45.900Z,99969.31
2023-03-06T01:37:13.402Z,99960.56
2023-03-06T01:39:40.499Z,99958.84
2023-03-06T01:42:08.550Z,99958.84
2023-03-06T01:44:35.727Z,99967.63
2023-03-06T01:47:03.075Z,99967.63
2023-03-06T01:49:39.630Z,99961.59
2023-03-06T01:52:14.992Z,99964.22
2023-03-06T01:54:49.814Z,99975.63
2023-03-06T01:57:30.638Z,99968.69
2023-03-06T02:00:20.155Z,99969.56
2023-03-06T02:03:00.825Z,99976.59
2023-03-06T02:05:27.953Z,99971.34
2023-03-06T02:07:57.675Z,99964.34
2023-03-06T02:10:24.886Z,99964.41
2023-03-06T02:12:53.160Z,99954.81
2023-03-06T02:15:24.474Z,99979.09
2023-03-06T02:17:52.232Z,99967.69
2023-03-06T02:20:25.216Z,99968.50
2023-03-06T02:23:06.249Z,99971.13
2023-03-06T02:25:33.931Z,99973.75
2023-03-06T02:28:02.435Z,99973.81
2023-03-06T02:30:30.893Z,99972.09
2023-03-06T02:32:58.588Z,99966.00
2023-03-06T02:35:31.569Z,99977.22
2023-03-06T02:38:21.042Z,99973.66
2023-03-06T02:40:51.259Z,99979.75
2023-03-06T02:43:21.378Z,99983.19
2023-03-06T02:45:50.808Z,99973.53
2023-03-06T02:48:19.908Z,99979.59
2023-03-06T02:50:47.964Z,99983.03
2023-03-06T02:53:17.581Z,99984.69
2023-03-06T02:55:45.204Z,99985.53
2023-03-06T02:58:13.179Z,99988.06
2023-03-06T03:00:40.309Z,99981.97
2023-03-06T03:03:09.284Z,99984.50
2023-03-06T03:05:39.410Z,99983.69
2023-03-06T03:08:06.923Z,99978.44
2023-03-06T03:10:34.087Z,99983.66
2023-03-06T03:13:08.058Z,99976.63
2023-03-06T03:15:35.326Z,99975.75
2023-03-06T03:18:02.982Z,99984.47
2023-03-06T03:20:30.199Z,99972.22
2023-03-06T03:22:58.527Z,99979.25
2023-03-06T03:25:26.295Z,99973.13
2023-03-06T03:27:54.390Z,99971.41
2023-03-06T03:30:22.138Z,99967.06
2023-03-06T03:32:50.947Z,99975.75
2023-03-06T03:35:19.268Z,99981.84
2023-03-06T03:37:46.681Z,99972.19
2023-03-06T03:40:13.943Z,99977.34
2023-03-06T03:42:41.380Z,99969.56
2023-03-06T03:45:08.756Z,99973.91
2023-03-06T03:47:39.110Z,99966.88
2023-03-06T03:50:07.791Z,99961.59
2023-03-06T03:52:35.107Z,99961.59
2023-03-06T03:55:02.192Z,99968.59
2023-03-06T03:57:30.747Z,99967.69
2023-03-06T03:59:57.807Z,99967.56
2023-03-06T04:02:25.639Z,99967.56
2023-03-06T04:04:52.979Z,99964.13
2023-03-06T04:07:20.490Z,99963.25
2023-03-06T04:09:48.528Z,99962.41
2023-03-06T04:12:16.017Z,99965.03
2023-03-06T04:14:43.606Z,99968.50
2023-03-06T04:17:11.322Z,99974.56
2023-03-06T04:19:38.467Z,99972.88
2023-03-06T04:22:05.835Z,99982.44
2023-03-06T04:24:32.854Z,99974.59
2023-03-06T04:27:00.395Z,99978.06
2023-03-06T04:29:27.492Z,99981.59
2023-03-06T04:31:54.871Z,99977.34
2023-03-06T04:34:21.820Z,99977.31
2023-03-06T04:36:49.149Z,99982.56
2023-03-06T04:39:16.261Z,99967.03
2023-03-06T04:41:43.674Z,99963.53
2023-03-06T04:44:10.758Z,99977.44
2023-03-06T04:46:38.204Z,99972.22
2023-03-06T04:49:05.424Z,99978.31
2023-03-06T04:51:33.671Z,99977.34
2023-03-06T04:56:46.801Z,99981.66
2023-03-06T04:59:13.830Z,99990.44
2023-03-06T05:01:41.532Z,100015.81
2023-03-06T05:04:08.717Z,100005.50
2023-03-06T05:06:36.264Z,99997.59
2023-03-06T05:09:03.303Z,100010.63
2023-03-06T05:11:30.693Z,100007.13
2023-03-06T05:13:57.931Z,100013.13
2023-03-06T05:16:25.484Z,100007.88
2023-03-06T05:18:53.058Z,100018.19
2023-03-06T05:21:24.318Z,100026.81
2023-03-06T05:23:51.967Z,100011.03
2023-03-06T05:26:21.402Z,100030.09
2023-03-06T05:31:31.244Z,100018.59
2023-03-06T05:33:59.233Z,100028.06
2023-03-06T05:36:27.719Z,100043.66
2023-03-06T05:38:54.778Z,100043.66
2023-03-06T05:41:22.295Z,100047.06
2023-03-06T05:43:50.117Z,100043.59
2023-03-06T05:46:21.065Z,100039.94
2023-03-06T05:48:48.374Z,100044.28
2023-03-06T05:51:15.930Z,100042.31
2023-03-06T05:53:43.087Z,100031.84
2023-03-06T05:59:19.076Z,100046.38
2023-03-06T06:01:46.470Z,100048.13
2023-03-06T06:04:15.762Z,100055.88
2023-03-06T06:06:43.172Z,100058.50
2023-03-06T06:09:11.748Z,100062.00
2023-03-06T06:11:41.099Z,100064.38
2023-03-06T06:14:08.143Z,100064.28
2023-03-06T06:16:35.541Z,100065.13
2023-03-06T06:19:02.663Z,100065.84
2023-03-06T06:21:30.188Z,100071.25
2023-03-06T06:23:57.151Z,100067.84
2023-03-06T06:26:26.835Z,100079.13
2023-03-06T06:28:53.881Z,100088.63
2023-03-06T06:31:21.534Z,100085.88
2023-03-06T06:33:49.643Z,100092.72
2023-03-06T06:36:20.086Z,100097.81
2023-03-06T06:38:47.227Z,100101.88
2023-03-06T06:41:50.740Z,100100.06
2023-03-06T06:44:08.546Z,100097.53
2023-03-06T06:47:20.832Z,100100.06
2023-03-06T06:49:24.364Z,100090.38
2023-03-06T06:51:51.660Z,100098.25
2023-03-06T06:54:20.024Z,100092.94
2023-03-06T06:56:47.434Z,100103.16
2023-03-06T06:59:17.086Z,100104.53
2023-03-06T07:01:45.141Z,100100.91
2023-03-06T07:04:15.492Z,100100.84
2023-03-06T07:06:43.009Z,100112.91
2023-03-06T07:09:10.315Z,100115.34
2023-03-06T07:11:38.822Z,100123.97
2023-03-06T07:14:06.073Z,100091.66
2023-03-06T07:16:33.553Z,100107.19
2023-03-06T07:19:09.482Z,100116.50
2023-03-06T07:21:36.904Z,100112.91
2023-03-06T07:24:04.884Z,100123.16
2023-03-06T07:26:34.670Z,100111.72
2023-03-06T07:29:03.668Z,100111.50
2023-03-06T07:31:31.398Z,100127.88
2023-03-06T07:33:58.532Z,100127.75
2023-03-06T07:36:26.034Z,100131.91
2023-03-06T07:38:53.049Z,100119.56
2023-03-06T07:41:22.465Z,100120.19
2023-03-06T07:43:50.269Z,100132.22
2023-03-06T07:46:18.379Z,100135.31
2023-03-06T07:48:45.516Z,100125.41
2023-03-06T07:51:18.425Z,100128.69
2023-03-06T07:53:46.221Z,100133.50
2023-03-06T07:56:14.231Z,100125.44
2023-03-06T07:58:43.574Z,100123.53
2023-03-06T08:01:14.216Z,100131.38
2023-03-06T08:03:41.949Z,100132.75
2023-03-06T08:06:18.578Z,100123.84
2023-03-06T08:08:47.081Z,100134.16
2023-03-06T08:11:16.660Z,100137.13
2023-03-06T08:13:44.632Z,100140.16
2023-03-06T08:16:12.062Z,100141.41
2023-03-06T08:18:44.962Z,100141.28
2023-03-06T08:21:15.936Z,100139.19
2023-03-06T08:23:43.440Z,100147.31
2023-03-06T08:26:13.537Z,100138.94
2023-03-06T08:28:40.826Z,100134.16
2023-03-06T08:31:13.169Z,100133.69
2023-03-06T08:33:41.118Z,100131.09
2023-03-06T08:36:08.774Z,100126.56
2023-03-06T08:38:35.825Z,100130.09
2023-03-06T08:41:03.370Z,100119.44
2023-03-06T08:43:30.373Z,100129.97
2023-03-06T08:45:58.907Z,100124.69
2023-03-06T08:48:26.493Z,100133.25
2023-03-06T08:50:54.102Z,100126.03
2023-03-06T08:53:40.442Z,100131.41
2023-03-06T08:56:16.894Z,100129.75
2023-03-06T08:58:43.968Z,100129.44
2023-03-06T09:01:23.804Z,100143.16
2023-03-06T09:03:54.626Z,100148.28
2023-03-06T09:06:26.389Z,100144.16
2023-03-06T09:08:54.887Z,100144.03
2023-03-06T09:11:24.780Z,100149.69
2023-03-06T09:13:52.706Z,100132.72
2023-03-06T09:16:20.499Z,100134.06
2023-03-06T09:18:50.575Z,100141.47
2023-03-06T09:21:17.998Z,100138.59
2023-03-06T09:23:45.292Z,100135.31
2023-03-06T09:26:13.012Z,100137.69
2023-03-06T09:28:41.410Z,100139.44
2023-03-06T09:31:17.810Z,100151.72
2023-03-06T09:33:47.872Z,100145.69
2023-03-06T09:36:21.051Z,100142.53
2023-03-06T09:38:50.124Z,100138.50
2023-03-06T09:41:34.309Z,100144.41
2023-03-06T09:44:05.127Z,100151.22
2023-03-06T09:47:00.811Z,100143.16
2023-03-06T09:49:46.037Z,100153.66
2023-03-06T09:52:46.509Z,100144.88
2023-03-06T09:55:27.333Z,100157.00
2023-03-06T09:58:14.520Z,100148.63
2023-03-06T10:00:52.039Z,100146.28
2023-03-06T10:03:27.598Z,100144.41
2023-03-06T10:06:07.636Z,100146.06
2023-03-06T10:08:54.566Z,100150.06
2023-03-06T10:12:04.016Z,100138.25
2023-03-06T10:14:45.044Z,100138.66
2023-03-06T10:17:26.349Z,100132.88
2023-03-06T10:19:54.996Z,100124.09
2023-03-06T10:22:30.869Z,100136.59
2023-03-06T10:25:13.470Z,100124.41
2023-03-06T10:27:49.475Z,100142.06
2023-03-06T10:30:41.288Z,100131.94
2023-03-06T10:33:34.565Z,100132.75
2023-03-06T10:36:02.038Z,100125.41
2023-03-06T10:38:31.845Z,100116.22
2023-03-06T10:41:11.867Z,100123.84
2023-03-06T10:44:03.490Z,100117.91
2023-03-06T10:46:34.558Z,100127.25
2023-03-06T10:49:06.361Z,100111.81
2023-03-06T10:51:36.667Z,100104.50
2023-03-06T10:54:19.651Z,100115.06
2023-03-06T10:56:47.612Z,100108.81
2023-03-06T10:59:17.859Z,100114.50
2023-03-06T11:01:50.830Z,100098.91
2023-03-06T11:04:34.950Z,100098.00
2023-03-06T11:07:24.060Z,100091.34
2023-03-06T11:09:58.206Z,100091.91
2023-03-06T11:12:36.048Z,100090.16
2023-03-06T11:15:09.381Z,100089.78
2023-03-06T11:17:49.279Z,100086.03
2023-03-06T11:20:51.868Z,100082.41
2023-03-06T11:23:23.222Z,100078.47
2023-03-06T11:26:25.816Z,100081.06
2023-03-06T11:29:20.933Z,100083.59
2023-03-06T11:32:05.883Z,100074.53
2023-03-06T11:34:53.924Z,100078.59
2023-03-06T11:37:33.002Z,100078.59
2023-03-06T11:40:15.289Z,100078.44
2023-03-06T11:43:14.095Z,100078.94
2023-03-06T11:45:54.382Z,100078.06
2023-03-06T11:48:26.012Z,100079.19
2023-03-06T11:53:41.106Z,100078.16
2023-03-06T11:56:51.994Z,100072.03
2023-03-06T11:59:18.956Z,100074.50
2023-03-06T12:02:20.135Z,100076.09
2023-03-06T12:05:08.980Z,100070.25
2023-03-06T12:08:02.052Z,100073.09
2023-03-06T12:11:10.461Z,100071.03
2023-03-06T12:14:00.206Z,100081.56
2023-03-06T12:16:39.506Z,100062.50
2023-03-06T12:19:38.241Z,100071.03
2023-03-06T12:22:21.094Z,100065.63
2023-03-06T12:25:34.244Z,100069.78
2023-03-06T12:28:41.150Z,100063.84
2023-03-06T12:31:43.592Z,100067.34
2023-03-06T12:34:33.697Z,100061.25
2023-03-06T12:37:02.320Z,100058.78
2023-03-06T12:39:31.094Z,100058.84
2023-03-06T12:42:32.770Z,100066.69
2023-03-06T12:45:20.763Z,100065.94
2023-03-06T12:47:53.762Z,100054.84
2023-03-06T12:50:44.767Z,100069.81
2023-03-06T12:53:32.396Z,100062.56
2023-03-06T12:56:02.136Z,100064.94
2023-03-06T12:58:46.419Z,100062.97
2023-03-06T13:01:47.354Z,100065.50
2023-03-06T13:04:49.006Z,100063.91
2023-03-06T13:07:40.441Z,100061.56
2023-03-06T13:10:07.899Z,100058.25
2023-03-06T13:12:44.244Z,100063.72
2023-03-06T13:15:20.801Z,100063.72
2023-03-06T13:17:52.575Z,100057.69
2023-03-06T13:20:34.920Z,100057.69
2023-03-06T13:23:31.469Z,100059.84
2023-03-06T13:26:30.262Z,100039.97
2023-03-06T13:28:58.433Z,100046.44
2023-03-06T13:31:36.599Z,100055.19
2023-03-06T13:34:32.495Z,100053.34
2023-03-06T13:37:25.400Z,100058.78
2023-03-06T13:39:55.590Z,100051.88
2023-03-06T13:42:37.375Z,100053.69
2023-03-06T13:45:30.035Z,100059.81
2023-03-06T13:48:41.243Z,100051.91
2023-03-06T13:50:50.018Z,100050.97
2023-03-06T13:53:36.655Z,100044.97
2023-03-06T13:56:42.430Z,100047.78
2023-03-06T13:59:35.290Z,100047.16
2023-03-06T14:02:47.845Z,100058.63
2023-03-06T14:08:10.207Z,100052.06
2023-03-06T14:10:40.228Z,100055.38
2023-03-06T14:13:19.311Z,100061.53
2023-03-06T14:15:52.652Z,100056.31
2023-03-06T14:18:21.505Z,100042.28
2023-03-06T14:20:54.823Z,100045.78
2023-03-06T14:23:21.766Z,100049.19
2023-03-06T14:26:18.411Z,100057.03
2023-03-06T14:29:19.274Z,100055.19
2023-03-06T14:31:48.968Z,100051.50
2023-03-06T14:34:24.518Z,100050.78
2023-03-06T14:36:56.009Z,100044.56
2023-03-06T14:39:31.592Z,100048.81
2023-03-06T14:42:30.585Z,100051.22
2023-03-06T14:45:10.772Z,100054.81
2023-03-06T14:47:38.508Z,100053.28
2023-03-06T14:50:19.464Z,100043.75
2023-03-06T14:52:52.456Z,100060.31
2023-03-06T14:55:22.025Z,100067.31
2023-03-06T14:58:00.803Z,100060.31
2023-03-06T15:00:36.100Z,100052.44
2023-03-06T15:03:16.596Z,100063.22
2023-03-06T15:05:47.071Z,100052.69
2023-03-06T15:08:21.949Z,100058.06
2023-03-06T15:11:03.932Z,100061.69
2023-03-06T15:13:33.358Z,100064.53
2023-03-06T15:16:04.496Z,100058.50
2023-03-06T15:18:39.084Z,100058.50
2023-03-06T15:21:20.795Z,100054.34
2023-03-06T15:23:49.275Z,100061.22
2023-03-06T15:26:40.355Z,100060.75
2023-03-06T15:29:11.087Z,100070.31
2023-03-06T15:31:43.824Z,100066.97
2023-03-06T15:34:11.240Z,100074.91
2023-03-06T15:36:42.681Z,100078.59
2023-03-06T15:39:31.419Z,100073.44
2023-03-06T15:42:27.986Z,100061.34
2023-03-06T15:47:47.989Z,100072.13
2023-03-06T15:50:21.716Z,100067.06
2023-03-06T15:52:50.033Z,100075.91
2023-03-06T15:55:22.598Z,100069.22
2023-03-06T15:58:09.826Z,100080.59
2023-03-06T16:00:38.634Z,100071.25
2023-03-06T16:03:05.788Z,100074.88
2023-03-06T16:05:33.749Z,100075.91
2023-03-06T16:08:01.021Z,100078.59
2023-03-06T16:10:39.494Z,100081.41
2023-03-06T16:13:14.275Z,100088.41
2023-03-06T16:15:48.016Z,100082.47
2023-03-06T16:20:58.987Z,100079.31
2023-03-06T16:23:29.516Z,100077.81
2023-03-06T16:26:03.061Z,100093.53
2023-03-06T16:28:32.308Z,100090.28
2023-03-06T16:30:59.870Z,100091.22
2023-03-06T16:33:28.934Z,100093.09
2023-03-06T16:35:57.571Z,100090.03
2023-03-06T16:41:10.658Z,100092.03
2023-03-06T16:43:39.175Z,100094.78
2023-03-06T16:46:14.678Z,100098.41
2023-03-06T16:48:41.719Z,100107.22
2023-03-06T16:51:14.055Z,100104.59
2023-03-06T16:53:41.199Z,100098.56
2023-03-06T16:56:18.850Z,100092.63
2023-03-06T16:58:50.134Z,100102.44
2023-03-06T17:01:20.268Z,100101.66
2023-03-06T17:03:47.541Z,100107.13
2023-03-06T17:06:21.197Z,100102.13
2023-03-06T17:08:50.106Z,100103.34
2023-03-06T17:11:32.154Z,100095.66
2023-03-06T17:14:08.513Z,100109.00
2023-03-06T17:20:13.756Z,100101.72
2023-03-06T17:22:53.122Z,100103.66
2023-03-06T17:25:24.720Z,100109.09
2023-03-06T17:38:06.380Z,100098.63
2023-03-06T17:40:39.886Z,100096.41
2023-03-06T17:43:06.914Z,100100.19
2023-03-06T17:45:43.685Z,100101.34
2023-03-06T17:48:13.303Z,100096.38
2023-03-06T17:50:41.356Z,100106.16
2023-03-06T17:53:08.755Z,100106.22
2023-03-06T17:55:41.066Z,100113.47
2023-03-06T17:58:10.245Z,100109.34
2023-03-06T18:00:40.380Z,100106.00
2023-03-06T18:03:09.177Z,100100.00
2023-03-06T18:05:37.093Z,100110.53
2023-03-06T18:08:09.777Z,100110.66
2023-03-06T18:10:41.243Z,100113.38
2023-03-06T18:13:09.863Z,100115.34
2023-03-06T18:15:41.511Z,100119.88
2023-03-06T18:18:09.144Z,100116.69
2023-03-06T18:20:45.837Z,100118.59
2023-03-06T18:23:14.310Z,100118.75
2023-03-06T18:25:42.055Z,100119.88
2023-03-06T18:28:09.054Z,100113.91
2023-03-06T18:30:39.461Z,100127.94
2023-03-06T18:33:07.396Z,100123.69
2023-03-06T18:35:37.696Z,100127.03
2023-03-06T18:38:07.429Z,100118.34
2023-03-06T18:40:34.937Z,100110.66
2023-03-06T18:43:02.088Z,100123.81
2023-03-06T18:45:30.892Z,100129.22
2023-03-06T18:47:58.112Z,100126.84
2023-03-06T18:50:25.807Z,100120.06
2023-03-06T18:52:53.096Z,100128.88
2023-03-06T18:55:21.920Z,100130.75
2023-03-06T18:57:49.038Z,100139.59
2023-03-06T19:00:17.376Z,100134.69
2023-03-06T19:02:44.790Z,100131.34
2023-03-06T19:05:20.812Z,100127.19
2023-03-06T19:07:50.890Z,100142.94
2023-03-06T19:10:18.598Z,100131.75
2023-03-06T19:12:45.807Z,100123.06
2023-03-06T19:15:13.446Z,100109.13
2023-03-06T19:17:41.299Z,100104.78
2023-03-06T19:20:09.623Z,100111.66
2023-03-06T19:22:40.359Z,100105.66
2023-03-06T19:25:08.243Z,100103.88
2023-03-06T19:27:38.029Z,100110.91
2023-03-06T19:30:16.555Z,100112.66
2023-03-06T19:32:54.090Z,100113.56
2023-03-06T19:35:21.506Z,100107.59
2023-03-06T19:37:48.660Z,100114.69
2023-03-06T19:40:16.654Z,100116.53
2023-03-06T19:42:44.005Z,100115.59
2023-03-06T19:45:12.781Z,100117.22
2023-03-06T19:47:39.869Z,100118.13
2023-03-06T19:50:07.948Z,100121.69
2023-03-06T19:52:37.127Z,100112.03
2023-03-06T19:55:05.984Z,100111.97
2023-03-06T19:57:33.025Z,100104.13
2023-03-06T20:00:04.804Z,100104.06
2023-03-06T20:02:32.766Z,100099.81
2023-03-06T20:05:00.332Z,100101.66
2023-03-06T20:07:27.391Z,100108.66
2023-03-06T20:09:57.766Z,100108.81
2023-03-06T20:12:24.810Z,100091.53
2023-03-06T20:14:52.350Z,100094.16
2023-03-06T20:17:19.510Z,100096.03
2023-03-06T20:19:47.136Z,100108.28
2023-03-06T20:22:14.166Z,100111.81
2023-03-06T20:24:41.646Z,100108.44
2023-03-06T20:27:09.391Z,100109.34
2023-03-06T20:29:37.167Z,100102.44
2023-03-06T20:32:04.350Z,100103.28
2023-03-06T20:34:32.122Z,100098.91
2023-03-06T20:36:59.241Z,100106.75
2023-03-06T20:39:26.777Z,100105.91
2023-03-06T20:41:53.955Z,100102.41
2023-03-06T20:44:32.667Z,100095.28
2023-03-06T20:46:59.738Z,100091.56
2023-03-06T20:49:28.533Z,100086.13
2023-03-06T20:51:56.771Z,100095.72
2023-03-06T20:54:27.503Z,100095.78
2023-03-06T20:56:56.000Z,100090.69
2023-03-06T20:59:24.012Z,100092.56
2023-03-06T21:01:53.320Z,100100.59
2023-03-06T21:04:42.457Z,100103.34
2023-03-06T21:07:14.626Z,100094.72
2023-03-06T21:09:43.276Z,100093.00
2023-03-06T21:12:14.505Z,100087.81
2023-03-06T21:14:42.773Z,100089.50
2023-03-06T21:17:13.809Z,100094.75
2023-03-06T21:19:41.669Z,100086.91
2023-03-06T21:22:12.427Z,100095.63
2023-03-06T21:24:42.458Z,100093.00
2023-03-06T21:27:18.863Z,100073.88
2023-03-06T21:29:46.566Z,100086.03
2023-03-06T21:32:13.672Z,100072.13
2023-03-06T21:34:41.328Z,100071.25
2023-03-06T21:37:09.381Z,100078.25
2023-03-06T21:39:36.778Z,100078.25
2023-03-06T21:42:03.778Z,100068.72
2023-03-06T21:44:31.136Z,100072.16
2023-03-06T21:46:58.093Z,100067.81
2023-03-06T21:49:27.271Z,100072.16
2023-03-06T21:51:57.712Z,100066.94
2023-03-06T21:54:26.968Z,100063.47
2023-03-06T21:56:53.918Z,100071.31
2023-03-06T21:59:21.425Z,100060.91
2023-03-06T22:01:50.070Z,100071.31
2023-03-06T22:04:20.734Z,100076.50
2023-03-06T22:06:48.847Z,100073.94
2023-03-06T22:09:19.612Z,100064.38
2023-03-06T22:11:48.061Z,100072.22
2023-03-06T22:14:15.527Z,100073.13
2023-03-06T22:16:42.685Z,100067.91
2023-03-06T22:19:13.098Z,100067.91
2023-03-06T22:21:43.185Z,100070.56
2023-03-06T22:24:10.509Z,100073.16
2023-03-06T22:26:37.907Z,100074.91
2023-03-06T22:29:05.242Z,100080.16
2023-03-06T22:31:32.256Z,100079.28
2023-03-06T22:34:00.861Z,100071.50
2023-03-06T22:36:30.496Z,100078.47
2023-03-06T22:39:02.105Z,100082.00
2023-03-06T22:41:32.074Z,100078.53
2023-03-06T22:44:02.291Z,100076.88
2023-03-06T22:46:31.668Z,100070.78
2023-03-06T22:49:04.540Z,100078.66
2023-03-06T22:51:32.042Z,100063.91
2023-03-06T22:53:59.620Z,100069.13
2023-03-06T22:56:27.563Z,100063.03
2023-03-06T22:59:00.705Z,100062.19
2023-03-06T23:01:43.868Z,100067.41
2023-03-06T23:04:14.266Z,100054.34
2023-03-06T23:06:43.224Z,100052.59
2023-03-06T23:09:23.127Z,100054.31
2023-03-06T23:11:50.467Z,100042.16
2023-03-06T23:14:19.213Z,100049.97
2023-03-06T23:16:46.397Z,100042.09
2023-03-06T23:19:13.984Z,100029.94
2023-03-06T23:21:41.041Z,100039.50
2023-03-06T23:24:09.559Z,100031.63
2023-03-06T23:26:36.613Z,100036.84
2023-03-06T23:29:04.423Z,100034.19
2023-03-06T23:31:32.572Z,100026.31
2023-03-06T23:34:01.700Z,100031.50
2023-03-06T23:36:29.789Z,100027.16
2023-03-06T23:38:58.237Z,100023.66
2023-03-06T23:41:27.354Z,100022.78
2023-03-06T23:43:55.443Z,100016.66
2023-03-06T23:46:22.581Z,100017.50
2023-03-06T23:48:50.692Z,100007.91
2023-03-06T23:51:20.597Z,100009.66
2023-03-06T23:53:53.122Z,100014.91
2023-03-06T23:56:20.426Z,100019.25
2023-03-06T23:58:48.357Z,100006.25
